Mc Knightstown, Pennsylvania
Current Conditions -  °F | °C
As of 8:53 PM on Wednesday 17 Dec 2014 (Local Time) from KRYT Reporting Station
Overcast Overcast  
Wind Chill: -1°   Ceiling: 3700
Heat Index:   Visibility: 10mi
Dew Point: -6°   Wind: 7mph
Humidity: 57%   Direction: NA
Pressure: 30.02"   Gusts: 18mph
Location:  39.8752°N, 77.3219°W
Report Text: KRYT 180153Z AUTO VRB06G16KT 10SM OVC037 02/M06 A3002 RMK AO2 SLP173 T00221056 $
Loading
Personal Weather Stations






























Interactive Weather Map New forecast layout! Learn more

10-Day Weather Forecast

Advertisements
Track Severe Weather on mobile